sensor_id;sensor_type;location;lat;lon;timestamp;P1;durP1;ratioP1;P2;durP2;ratioP2
14760;SDS011;7472;45.396;5.272;2023-02-25T00:00:51;9.35;;;4.00;;
14760;SDS011;7472;45.396;5.272;2023-02-25T00:03:19;5.32;;;3.53;;
14760;SDS011;7472;45.396;5.272;2023-02-25T00:05:46;6.20;;;4.07;;
14760;SDS011;7472;45.396;5.272;2023-02-25T00:08:14;11.18;;;4.75;;
14760;SDS011;7472;45.396;5.272;2023-02-25T00:10:41;7.20;;;4.65;;
14760;SDS011;7472;45.396;5.272;2023-02-25T00:13:10;11.15;;;4.35;;
14760;SDS011;7472;45.396;5.272;2023-02-25T00:15:39;8.65;;;3.88;;
14760;SDS011;7472;45.396;5.272;2023-02-25T00:18:06;8.35;;;4.53;;
14760;SDS011;7472;45.396;5.272;2023-02-25T00:20:34;7.55;;;4.40;;
14760;SDS011;7472;45.396;5.272;2023-02-25T00:23:05;7.38;;;3.85;;
14760;SDS011;7472;45.396;5.272;2023-02-25T00:25:32;7.05;;;3.75;;
14760;SDS011;7472;45.396;5.272;2023-02-25T00:28:00;7.45;;;4.18;;
14760;SDS011;7472;45.396;5.272;2023-02-25T00:30:31;7.15;;;3.88;;
14760;SDS011;7472;45.396;5.272;2023-02-25T00:32:58;9.25;;;4.22;;
14760;SDS011;7472;45.396;5.272;2023-02-25T00:35:26;8.45;;;4.75;;
14760;SDS011;7472;45.396;5.272;2023-02-25T00:37:53;12.35;;;4.45;;
14760;SDS011;7472;45.396;5.272;2023-02-25T00:40:20;7.82;;;4.00;;
14760;SDS011;7472;45.396;5.272;2023-02-25T00:42:48;10.65;;;4.70;;
14760;SDS011;7472;45.396;5.272;2023-02-25T00:45:15;7.75;;;4.57;;
14760;SDS011;7472;45.396;5.272;2023-02-25T00:47:44;10.30;;;4.50;;
14760;SDS011;7472;45.396;5.272;2023-02-25T00:50:12;9.70;;;4.97;;
14760;SDS011;7472;45.396;5.272;2023-02-25T00:52:39;7.65;;;4.40;;
14760;SDS011;7472;45.396;5.272;2023-02-25T00:55:07;10.60;;;4.07;;
14760;SDS011;7472;45.396;5.272;2023-02-25T00:57:35;8.02;;;3.90;;
14760;SDS011;7472;45.396;5.272;2023-02-25T01:00:02;7.22;;;3.97;;
14760;SDS011;7472;45.396;5.272;2023-02-25T01:02:33;8.38;;;4.57;;
14760;SDS011;7472;45.396;5.272;2023-02-25T01:05:02;6.43;;;4.13;;
14760;SDS011;7472;45.396;5.272;2023-02-25T01:07:30;7.10;;;4.13;;
14760;SDS011;7472;45.396;5.272;2023-02-25T01:09:57;7.32;;;3.88;;
14760;SDS011;7472;45.396;5.272;2023-02-25T01:12:25;10.30;;;4.22;;
14760;SDS011;7472;45.396;5.272;2023-02-25T01:14:53;8.32;;;3.75;;
14760;SDS011;7472;45.396;5.272;2023-02-25T01:17:21;10.35;;;4.30;;
14760;SDS011;7472;45.396;5.272;2023-02-25T01:19:48;7.35;;;3.63;;
14760;SDS011;7472;45.396;5.272;2023-02-25T01:22:17;6.72;;;4.05;;
14760;SDS011;7472;45.396;5.272;2023-02-25T01:24:44;8.52;;;4.85;;
14760;SDS011;7472;45.396;5.272;2023-02-25T01:27:12;9.70;;;4.45;;
14760;SDS011;7472;45.396;5.272;2023-02-25T01:29:39;7.60;;;4.45;;
14760;SDS011;7472;45.396;5.272;2023-02-25T01:32:08;4.97;;;3.80;;
14760;SDS011;7472;45.396;5.272;2023-02-25T01:34:37;11.77;;;4.00;;
14760;SDS011;7472;45.396;5.272;2023-02-25T01:37:05;9.18;;;4.38;;
14760;SDS011;7472;45.396;5.272;2023-02-25T01:39:34;9.20;;;4.30;;
14760;SDS011;7472;45.396;5.272;2023-02-25T01:42:02;7.10;;;4.43;;
14760;SDS011;7472;45.396;5.272;2023-02-25T01:44:31;13.30;;;7.53;;
14760;SDS011;7472;45.396;5.272;2023-02-25T01:46:58;15.95;;;8.73;;
14760;SDS011;7472;45.396;5.272;2023-02-25T01:49:28;9.32;;;5.88;;
14760;SDS011;7472;45.396;5.272;2023-02-25T01:51:58;7.80;;;4.72;;
14760;SDS011;7472;45.396;5.272;2023-02-25T01:54:27;8.98;;;4.68;;
14760;SDS011;7472;45.396;5.272;2023-02-25T01:56:56;8.05;;;4.57;;
14760;SDS011;7472;45.396;5.272;2023-02-25T01:59:25;7.30;;;4.47;;
14760;SDS011;7472;45.396;5.272;2023-02-25T02:01:53;8.60;;;4.55;;
14760;SDS011;7472;45.396;5.272;2023-02-25T02:04:21;7.60;;;4.57;;
14760;SDS011;7472;45.396;5.272;2023-02-25T02:06:48;5.90;;;4.53;;
14760;SDS011;7472;45.396;5.272;2023-02-25T02:09:17;9.90;;;4.97;;
14760;SDS011;7472;45.396;5.272;2023-02-25T02:11:45;7.75;;;4.07;;
14760;SDS011;7472;45.396;5.272;2023-02-25T02:14:14;7.78;;;4.40;;
14760;SDS011;7472;45.396;5.272;2023-02-25T02:16:47;11.13;;;4.95;;
14760;SDS011;7472;45.396;5.272;2023-02-25T02:19:21;11.35;;;5.00;;
14760;SDS011;7472;45.396;5.272;2023-02-25T02:21:54;9.57;;;5.38;;
14760;SDS011;7472;45.396;5.272;2023-02-25T02:24:39;9.15;;;5.07;;
14760;SDS011;7472;45.396;5.272;2023-02-25T02:27:11;10.48;;;5.20;;
14760;SDS011;7472;45.396;5.272;2023-02-25T02:29:50;16.10;;;5.65;;
14760;SDS011;7472;45.396;5.272;2023-02-25T02:32:25;12.82;;;5.25;;
14760;SDS011;7472;45.396;5.272;2023-02-25T02:34:56;12.45;;;5.63;;
14760;SDS011;7472;45.396;5.272;2023-02-25T02:37:28;7.65;;;5.60;;
14760;SDS011;7472;45.396;5.272;2023-02-25T02:40:02;9.25;;;4.70;;
14760;SDS011;7472;45.396;5.272;2023-02-25T02:42:36;9.45;;;4.90;;
14760;SDS011;7472;45.396;5.272;2023-02-25T02:45:05;7.95;;;4.90;;
14760;SDS011;7472;45.396;5.272;2023-02-25T02:47:38;10.23;;;6.30;;
14760;SDS011;7472;45.396;5.272;2023-02-25T02:50:07;13.80;;;6.47;;
14760;SDS011;7472;45.396;5.272;2023-02-25T02:52:36;9.40;;;4.75;;
14760;SDS011;7472;45.396;5.272;2023-02-25T02:55:05;8.15;;;6.03;;
14760;SDS011;7472;45.396;5.272;2023-02-25T02:57:34;10.38;;;5.25;;
14760;SDS011;7472;45.396;5.272;2023-02-25T03:00:03;6.07;;;4.53;;
14760;SDS011;7472;45.396;5.272;2023-02-25T03:02:39;6.00;;;4.05;;
14760;SDS011;7472;45.396;5.272;2023-02-25T03:05:08;6.70;;;4.20;;
14760;SDS011;7472;45.396;5.272;2023-02-25T03:07:37;5.88;;;4.25;;
14760;SDS011;7472;45.396;5.272;2023-02-25T03:10:07;3.70;;;3.40;;
14760;SDS011;7472;45.396;5.272;2023-02-25T03:12:37;4.75;;;2.90;;
14760;SDS011;7472;45.396;5.272;2023-02-25T03:15:04;7.32;;;3.35;;
14760;SDS011;7472;45.396;5.272;2023-02-25T03:17:34;3.28;;;2.88;;
14760;SDS011;7472;45.396;5.272;2023-02-25T03:20:09;2.70;;;2.50;;
14760;SDS011;7472;45.396;5.272;2023-02-25T03:22:40;5.53;;;2.42;;
14760;SDS011;7472;45.396;5.272;2023-02-25T03:25:08;2.67;;;2.45;;
14760;SDS011;7472;45.396;5.272;2023-02-25T03:27:39;6.05;;;2.45;;
14760;SDS011;7472;45.396;5.272;2023-02-25T03:30:09;2.47;;;2.28;;
14760;SDS011;7472;45.396;5.272;2023-02-25T03:32:39;2.17;;;1.92;;
14760;SDS011;7472;45.396;5.272;2023-02-25T03:35:09;2.17;;;1.98;;
14760;SDS011;7472;45.396;5.272;2023-02-25T03:37:38;2.38;;;2.17;;
14760;SDS011;7472;45.396;5.272;2023-02-25T03:40:08;3.05;;;2.15;;
14760;SDS011;7472;45.396;5.272;2023-02-25T03:42:40;2.13;;;1.98;;
14760;SDS011;7472;45.396;5.272;2023-02-25T03:45:10;4.10;;;1.90;;
14760;SDS011;7472;45.396;5.272;2023-02-25T03:47:38;2.22;;;1.95;;
14760;SDS011;7472;45.396;5.272;2023-02-25T03:50:07;2.55;;;2.03;;
14760;SDS011;7472;45.396;5.272;2023-02-25T03:52:37;5.22;;;2.60;;
14760;SDS011;7472;45.396;5.272;2023-02-25T03:55:05;2.83;;;2.42;;
14760;SDS011;7472;45.396;5.272;2023-02-25T03:57:34;2.58;;;1.80;;
14760;SDS011;7472;45.396;5.272;2023-02-25T04:00:04;2.13;;;1.83;;
14760;SDS011;7472;45.396;5.272;2023-02-25T04:02:40;6.95;;;2.72;;
14760;SDS011;7472;45.396;5.272;2023-02-25T04:05:07;1.95;;;1.20;;
14760;SDS011;7472;45.396;5.272;2023-02-25T04:07:37;2.60;;;2.40;;
14760;SDS011;7472;45.396;5.272;2023-02-25T04:10:05;3.08;;;2.45;;
14760;SDS011;7472;45.396;5.272;2023-02-25T04:12:32;2.30;;;2.10;;
14760;SDS011;7472;45.396;5.272;2023-02-25T04:15:00;3.10;;;2.50;;
14760;SDS011;7472;45.396;5.272;2023-02-25T04:17:27;2.45;;;2.25;;
14760;SDS011;7472;45.396;5.272;2023-02-25T04:19:55;2.75;;;2.55;;
14760;SDS011;7472;45.396;5.272;2023-02-25T04:22:22;2.30;;;2.10;;
14760;SDS011;7472;45.396;5.272;2023-02-25T04:24:51;2.50;;;2.30;;
14760;SDS011;7472;45.396;5.272;2023-02-25T04:27:18;2.28;;;2.10;;
14760;SDS011;7472;45.396;5.272;2023-02-25T04:29:46;2.58;;;2.38;;
14760;SDS011;7472;45.396;5.272;2023-02-25T04:32:13;2.22;;;2.03;;
14760;SDS011;7472;45.396;5.272;2023-02-25T04:34:41;3.22;;;2.10;;
14760;SDS011;7472;45.396;5.272;2023-02-25T04:37:08;2.90;;;2.60;;
14760;SDS011;7472;45.396;5.272;2023-02-25T04:39:36;1.90;;;1.73;;
14760;SDS011;7472;45.396;5.272;2023-02-25T04:42:05;2.22;;;2.03;;
14760;SDS011;7472;45.396;5.272;2023-02-25T04:44:32;2.17;;;1.98;;
14760;SDS011;7472;45.396;5.272;2023-02-25T04:46:59;2.22;;;2.03;;
14760;SDS011;7472;45.396;5.272;2023-02-25T04:49:27;2.20;;;2.00;;
14760;SDS011;7472;45.396;5.272;2023-02-25T04:51:54;2.20;;;2.00;;
14760;SDS011;7472;45.396;5.272;2023-02-25T04:54:23;2.35;;;2.15;;
14760;SDS011;7472;45.396;5.272;2023-02-25T04:56:51;2.10;;;1.90;;
14760;SDS011;7472;45.396;5.272;2023-02-25T04:59:19;2.97;;;2.42;;
14760;SDS011;7472;45.396;5.272;2023-02-25T05:01:50;2.30;;;1.92;;
14760;SDS011;7472;45.396;5.272;2023-02-25T05:04:18;2.20;;;2.00;;
14760;SDS011;7472;45.396;5.272;2023-02-25T05:06:45;2.53;;;2.00;;
14760;SDS011;7472;45.396;5.272;2023-02-25T05:09:13;2.17;;;1.98;;
14760;SDS011;7472;45.396;5.272;2023-02-25T05:11:40;2.22;;;2.03;;
14760;SDS011;7472;45.396;5.272;2023-02-25T05:14:07;5.47;;;1.80;;
14760;SDS011;7472;45.396;5.272;2023-02-25T05:16:37;2.65;;;2.45;;
14760;SDS011;7472;45.396;5.272;2023-02-25T05:19:04;1.90;;;1.80;;
14760;SDS011;7472;45.396;5.272;2023-02-25T05:21:32;2.97;;;2.28;;
14760;SDS011;7472;45.396;5.272;2023-02-25T05:24:00;2.40;;;2.20;;
14760;SDS011;7472;45.396;5.272;2023-02-25T05:26:28;3.15;;;1.80;;
14760;SDS011;7472;45.396;5.272;2023-02-25T05:28:57;2.72;;;2.28;;
14760;SDS011;7472;45.396;5.272;2023-02-25T05:31:24;2.05;;;1.95;;
14760;SDS011;7472;45.396;5.272;2023-02-25T05:33:53;2.10;;;2.00;;
14760;SDS011;7472;45.396;5.272;2023-02-25T05:36:21;2.42;;;2.20;;
14760;SDS011;7472;45.396;5.272;2023-02-25T05:38:51;2.10;;;1.98;;
14760;SDS011;7472;45.396;5.272;2023-02-25T05:41:19;2.13;;;1.92;;
14760;SDS011;7472;45.396;5.272;2023-02-25T05:43:46;2.30;;;2.10;;
14760;SDS011;7472;45.396;5.272;2023-02-25T05:46:13;2.40;;;2.13;;
14760;SDS011;7472;45.396;5.272;2023-02-25T05:48:42;2.40;;;2.20;;
14760;SDS011;7472;45.396;5.272;2023-02-25T05:51:13;2.97;;;2.30;;
14760;SDS011;7472;45.396;5.272;2023-02-25T05:53:41;2.10;;;1.88;;
14760;SDS011;7472;45.396;5.272;2023-02-25T05:56:10;2.30;;;2.10;;
14760;SDS011;7472;45.396;5.272;2023-02-25T05:58:38;2.30;;;2.10;;
14760;SDS011;7472;45.396;5.272;2023-02-25T06:01:06;2.85;;;2.42;;
14760;SDS011;7472;45.396;5.272;2023-02-25T06:03:35;1.98;;;1.88;;
14760;SDS011;7472;45.396;5.272;2023-02-25T06:06:03;2.08;;;1.73;;
14760;SDS011;7472;45.396;5.272;2023-02-25T06:11:00;2.00;;;1.90;;
14760;SDS011;7472;45.396;5.272;2023-02-25T06:13:28;2.05;;;1.95;;
14760;SDS011;7472;45.396;5.272;2023-02-25T06:15:55;2.80;;;2.30;;
14760;SDS011;7472;45.396;5.272;2023-02-25T06:18:23;2.42;;;2.05;;
14760;SDS011;7472;45.396;5.272;2023-02-25T06:20:50;2.45;;;2.15;;
14760;SDS011;7472;45.396;5.272;2023-02-25T06:23:19;2.03;;;1.83;;
14760;SDS011;7472;45.396;5.272;2023-02-25T06:25:46;3.42;;;2.58;;
14760;SDS011;7472;45.396;5.272;2023-02-25T06:28:15;2.33;;;2.13;;
14760;SDS011;7472;45.396;5.272;2023-02-25T06:30:42;1.85;;;1.73;;
14760;SDS011;7472;45.396;5.272;2023-02-25T06:33:10;2.78;;;2.50;;
14760;SDS011;7472;45.396;5.272;2023-02-25T06:35:37;4.18;;;2.25;;
14760;SDS011;7472;45.396;5.272;2023-02-25T06:38:05;3.45;;;3.15;;
14760;SDS011;7472;45.396;5.272;2023-02-25T06:40:32;2.35;;;2.15;;
14760;SDS011;7472;45.396;5.272;2023-02-25T06:43:00;2.67;;;2.47;;
14760;SDS011;7472;45.396;5.272;2023-02-25T06:45:28;3.08;;;2.58;;
14760;SDS011;7472;45.396;5.272;2023-02-25T06:47:56;3.20;;;2.90;;
14760;SDS011;7472;45.396;5.272;2023-02-25T06:50:23;2.13;;;1.92;;
14760;SDS011;7472;45.396;5.272;2023-02-25T06:52:51;3.88;;;3.47;;
14760;SDS011;7472;45.396;5.272;2023-02-25T06:55:18;3.08;;;2.78;;
14760;SDS011;7472;45.396;5.272;2023-02-25T06:57:46;3.63;;;2.95;;
14760;SDS011;7472;45.396;5.272;2023-02-25T07:00:13;2.75;;;2.55;;
14760;SDS011;7472;45.396;5.272;2023-02-25T07:02:42;3.67;;;2.42;;
14760;SDS011;7472;45.396;5.272;2023-02-25T07:05:10;3.40;;;2.53;;
14760;SDS011;7472;45.396;5.272;2023-02-25T07:07:37;2.70;;;2.50;;
14760;SDS011;7472;45.396;5.272;2023-02-25T07:10:05;3.97;;;3.00;;
14760;SDS011;7472;45.396;5.272;2023-02-25T07:12:32;3.17;;;2.88;;
14760;SDS011;7472;45.396;5.272;2023-02-25T07:15:00;2.28;;;1.98;;
14760;SDS011;7472;45.396;5.272;2023-02-25T07:17:27;3.38;;;2.15;;
14760;SDS011;7472;45.396;5.272;2023-02-25T07:19:56;3.28;;;2.97;;
14760;SDS011;7472;45.396;5.272;2023-02-25T07:22:23;3.50;;;2.75;;
14760;SDS011;7472;45.396;5.272;2023-02-25T07:24:51;2.85;;;2.55;;
14760;SDS011;7472;45.396;5.272;2023-02-25T07:27:18;2.40;;;2.15;;
14760;SDS011;7472;45.396;5.272;2023-02-25T07:29:46;3.78;;;2.25;;
14760;SDS011;7472;45.396;5.272;2023-02-25T07:32:14;2.65;;;2.08;;
14760;SDS011;7472;45.396;5.272;2023-02-25T07:34:41;4.63;;;2.25;;
14760;SDS011;7472;45.396;5.272;2023-02-25T07:37:10;2.83;;;2.63;;
14760;SDS011;7472;45.396;5.272;2023-02-25T07:39:38;3.45;;;3.15;;
14760;SDS011;7472;45.396;5.272;2023-02-25T07:42:05;3.35;;;3.05;;
14760;SDS011;7472;45.396;5.272;2023-02-25T07:44:32;3.83;;;3.05;;
14760;SDS011;7472;45.396;5.272;2023-02-25T07:47:00;4.68;;;2.83;;
14760;SDS011;7472;45.396;5.272;2023-02-25T07:49:27;2.53;;;2.30;;
14760;SDS011;7472;45.396;5.272;2023-02-25T07:51:55;3.33;;;3.13;;
14760;SDS011;7472;45.396;5.272;2023-02-25T07:54:24;4.50;;;3.40;;
14760;SDS011;7472;45.396;5.272;2023-02-25T07:56:51;3.45;;;3.15;;
14760;SDS011;7472;45.396;5.272;2023-02-25T07:59:18;3.83;;;3.53;;
14760;SDS011;7472;45.396;5.272;2023-02-25T08:01:47;6.00;;;3.42;;
14760;SDS011;7472;45.396;5.272;2023-02-25T08:04:14;5.53;;;3.60;;
14760;SDS011;7472;45.396;5.272;2023-02-25T08:06:42;4.30;;;3.58;;
14760;SDS011;7472;45.396;5.272;2023-02-25T08:09:10;4.60;;;4.15;;
14760;SDS011;7472;45.396;5.272;2023-02-25T08:11:39;4.43;;;3.70;;
14760;SDS011;7472;45.396;5.272;2023-02-25T08:14:07;4.05;;;3.72;;
14760;SDS011;7472;45.396;5.272;2023-02-25T08:16:35;4.28;;;3.75;;
14760;SDS011;7472;45.396;5.272;2023-02-25T08:19:03;3.88;;;3.53;;
14760;SDS011;7472;45.396;5.272;2023-02-25T08:21:30;5.65;;;3.78;;
14760;SDS011;7472;45.396;5.272;2023-02-25T08:23:58;3.40;;;3.20;;
14760;SDS011;7472;45.396;5.272;2023-02-25T08:26:25;3.30;;;3.00;;
14760;SDS011;7472;45.396;5.272;2023-02-25T08:28:54;4.05;;;3.05;;
14760;SDS011;7472;45.396;5.272;2023-02-25T08:31:22;4.45;;;3.08;;
14760;SDS011;7472;45.396;5.272;2023-02-25T08:33:50;5.28;;;4.78;;
14760;SDS011;7472;45.396;5.272;2023-02-25T08:36:18;3.65;;;3.35;;
14760;SDS011;7472;45.396;5.272;2023-02-25T08:38:46;4.00;;;3.60;;
14760;SDS011;7472;45.396;5.272;2023-02-25T08:41:14;7.65;;;3.50;;
14760;SDS011;7472;45.396;5.272;2023-02-25T08:43:42;3.33;;;3.03;;
14760;SDS011;7472;45.396;5.272;2023-02-25T08:46:10;4.13;;;3.72;;
14760;SDS011;7472;45.396;5.272;2023-02-25T08:48:38;5.30;;;4.80;;
14760;SDS011;7472;45.396;5.272;2023-02-25T08:51:06;3.85;;;3.53;;
14760;SDS011;7472;45.396;5.272;2023-02-25T08:53:34;8.05;;;4.65;;
14760;SDS011;7472;45.396;5.272;2023-02-25T08:56:03;5.03;;;4.22;;
14760;SDS011;7472;45.396;5.272;2023-02-25T08:58:30;5.15;;;4.65;;
14760;SDS011;7472;45.396;5.272;2023-02-25T09:00:58;4.70;;;4.22;;
14760;SDS011;7472;45.396;5.272;2023-02-25T09:03:27;5.65;;;4.47;;
14760;SDS011;7472;45.396;5.272;2023-02-25T09:05:54;4.50;;;4.10;;
14760;SDS011;7472;45.396;5.272;2023-02-25T09:08:22;6.47;;;4.63;;
14760;SDS011;7472;45.396;5.272;2023-02-25T09:10:49;4.25;;;3.83;;
14760;SDS011;7472;45.396;5.272;2023-02-25T09:13:17;6.10;;;5.35;;
14760;SDS011;7472;45.396;5.272;2023-02-25T09:15:44;6.25;;;5.13;;
14760;SDS011;7472;45.396;5.272;2023-02-25T09:18:12;6.22;;;4.25;;
14760;SDS011;7472;45.396;5.272;2023-02-25T09:20:40;4.93;;;4.43;;
14760;SDS011;7472;45.396;5.272;2023-02-25T09:23:08;5.20;;;4.70;;
14760;SDS011;7472;45.396;5.272;2023-02-25T09:25:37;6.78;;;5.95;;
14760;SDS011;7472;45.396;5.272;2023-02-25T09:28:05;5.88;;;5.00;;
14760;SDS011;7472;45.396;5.272;2023-02-25T09:30:32;7.47;;;5.40;;
14760;SDS011;7472;45.396;5.272;2023-02-25T09:32:59;9.82;;;6.10;;
14760;SDS011;7472;45.396;5.272;2023-02-25T09:35:27;9.23;;;6.05;;
14760;SDS011;7472;45.396;5.272;2023-02-25T09:37:56;12.43;;;4.93;;
14760;SDS011;7472;45.396;5.272;2023-02-25T09:40:23;8.57;;;5.57;;
14760;SDS011;7472;45.396;5.272;2023-02-25T09:42:53;7.45;;;4.90;;
14760;SDS011;7472;45.396;5.272;2023-02-25T09:45:24;9.40;;;6.80;;
14760;SDS011;7472;45.396;5.272;2023-02-25T09:47:52;10.75;;;7.28;;
14760;SDS011;7472;45.396;5.272;2023-02-25T09:50:24;11.77;;;7.20;;
14760;SDS011;7472;45.396;5.272;2023-02-25T09:52:55;14.30;;;8.23;;
14760;SDS011;7472;45.396;5.272;2023-02-25T09:55:27;10.35;;;8.55;;
14760;SDS011;7472;45.396;5.272;2023-02-25T09:57:58;11.15;;;7.72;;
14760;SDS011;7472;45.396;5.272;2023-02-25T10:00:28;7.25;;;5.05;;
14760;SDS011;7472;45.396;5.272;2023-02-25T10:02:58;11.80;;;6.82;;
14760;SDS011;7472;45.396;5.272;2023-02-25T10:05:30;14.10;;;8.18;;
14760;SDS011;7472;45.396;5.272;2023-02-25T10:08:05;11.93;;;7.32;;
14760;SDS011;7472;45.396;5.272;2023-02-25T10:10:39;9.50;;;6.78;;
14760;SDS011;7472;45.396;5.272;2023-02-25T10:13:16;9.80;;;6.95;;
14760;SDS011;7472;45.396;5.272;2023-02-25T10:15:48;9.68;;;7.32;;
14760;SDS011;7472;45.396;5.272;2023-02-25T10:18:28;8.63;;;5.32;;
14760;SDS011;7472;45.396;5.272;2023-02-25T10:21:02;11.98;;;7.50;;
14760;SDS011;7472;45.396;5.272;2023-02-25T10:23:35;9.10;;;6.53;;
14760;SDS011;7472;45.396;5.272;2023-02-25T10:26:10;10.18;;;6.47;;
14760;SDS011;7472;45.396;5.272;2023-02-25T10:28:40;8.30;;;6.05;;
14760;SDS011;7472;45.396;5.272;2023-02-25T10:31:10;10.55;;;7.10;;
14760;SDS011;7472;45.396;5.272;2023-02-25T10:33:39;8.60;;;6.35;;
14760;SDS011;7472;45.396;5.272;2023-02-25T10:36:08;5.47;;;4.30;;
14760;SDS011;7472;45.396;5.272;2023-02-25T10:38:36;10.93;;;6.18;;
14760;SDS011;7472;45.396;5.272;2023-02-25T10:41:06;10.35;;;6.78;;
14760;SDS011;7472;45.396;5.272;2023-02-25T10:43:35;9.57;;;6.53;;
14760;SDS011;7472;45.396;5.272;2023-02-25T10:46:03;9.50;;;7.00;;
14760;SDS011;7472;45.396;5.272;2023-02-25T10:48:34;9.90;;;6.20;;
14760;SDS011;7472;45.396;5.272;2023-02-25T10:51:05;11.10;;;7.55;;
14760;SDS011;7472;45.396;5.272;2023-02-25T10:53:37;10.25;;;6.43;;
14760;SDS011;7472;45.396;5.272;2023-02-25T10:56:04;10.98;;;6.35;;
14760;SDS011;7472;45.396;5.272;2023-02-25T10:58:37;12.95;;;8.27;;
14760;SDS011;7472;45.396;5.272;2023-02-25T11:01:06;9.85;;;6.38;;
14760;SDS011;7472;45.396;5.272;2023-02-25T11:03:38;10.70;;;6.95;;
14760;SDS011;7472;45.396;5.272;2023-02-25T11:06:09;12.18;;;7.35;;
14760;SDS011;7472;45.396;5.272;2023-02-25T11:08:37;11.00;;;7.07;;
14760;SDS011;7472;45.396;5.272;2023-02-25T11:11:11;11.13;;;7.32;;
14760;SDS011;7472;45.396;5.272;2023-02-25T11:13:41;10.35;;;5.47;;
14760;SDS011;7472;45.396;5.272;2023-02-25T11:16:10;10.52;;;7.32;;
14760;SDS011;7472;45.396;5.272;2023-02-25T11:18:38;10.57;;;7.07;;
14760;SDS011;7472;45.396;5.272;2023-02-25T11:21:08;13.18;;;6.80;;
14760;SDS011;7472;45.396;5.272;2023-02-25T11:23:38;9.38;;;7.38;;
14760;SDS011;7472;45.396;5.272;2023-02-25T11:26:13;9.95;;;7.60;;
14760;SDS011;7472;45.396;5.272;2023-02-25T11:28:44;15.95;;;7.82;;
14760;SDS011;7472;45.396;5.272;2023-02-25T11:31:14;12.55;;;8.15;;
14760;SDS011;7472;45.396;5.272;2023-02-25T11:33:45;11.25;;;7.97;;
14760;SDS011;7472;45.396;5.272;2023-02-25T11:36:21;12.57;;;7.63;;
14760;SDS011;7472;45.396;5.272;2023-02-25T11:38:48;10.98;;;7.35;;
14760;SDS011;7472;45.396;5.272;2023-02-25T11:41:19;11.23;;;7.90;;
14760;SDS011;7472;45.396;5.272;2023-02-25T11:43:50;13.13;;;7.80;;
14760;SDS011;7472;45.396;5.272;2023-02-25T11:46:18;9.88;;;7.40;;
14760;SDS011;7472;45.396;5.272;2023-02-25T11:48:51;12.25;;;6.93;;
14760;SDS011;7472;45.396;5.272;2023-02-25T11:51:23;10.00;;;6.82;;
14760;SDS011;7472;45.396;5.272;2023-02-25T11:54:00;9.90;;;5.90;;
14760;SDS011;7472;45.396;5.272;2023-02-25T11:56:35;9.70;;;5.32;;
14760;SDS011;7472;45.396;5.272;2023-02-25T11:59:12;16.13;;;7.75;;
14760;SDS011;7472;45.396;5.272;2023-02-25T12:01:50;11.98;;;7.40;;
14760;SDS011;7472;45.396;5.272;2023-02-25T12:04:37;9.30;;;6.63;;
14760;SDS011;7472;45.396;5.272;2023-02-25T12:10:02;11.30;;;6.70;;
14760;SDS011;7472;45.396;5.272;2023-02-25T12:15:29;11.80;;;7.57;;
14760;SDS011;7472;45.396;5.272;2023-02-25T12:18:17;9.70;;;6.85;;
14760;SDS011;7472;45.396;5.272;2023-02-25T12:20:58;12.52;;;7.25;;
14760;SDS011;7472;45.396;5.272;2023-02-25T12:26:35;10.57;;;7.63;;
14760;SDS011;7472;45.396;5.272;2023-02-25T12:29:24;12.00;;;8.85;;
14760;SDS011;7472;45.396;5.272;2023-02-25T12:32:06;10.55;;;7.35;;
14760;SDS011;7472;45.396;5.272;2023-02-25T12:37:27;9.73;;;6.68;;
14760;SDS011;7472;45.396;5.272;2023-02-25T12:40:00;12.13;;;7.05;;
14760;SDS011;7472;45.396;5.272;2023-02-25T12:42:52;11.88;;;8.30;;
14760;SDS011;7472;45.396;5.272;2023-02-25T12:45:32;9.57;;;7.63;;
14760;SDS011;7472;45.396;5.272;2023-02-25T12:50:52;8.50;;;6.03;;
14760;SDS011;7472;45.396;5.272;2023-02-25T12:53:25;13.18;;;7.78;;
14760;SDS011;7472;45.396;5.272;2023-02-25T12:58:43;15.23;;;9.95;;
14760;SDS011;7472;45.396;5.272;2023-02-25T13:04:10;15.43;;;9.68;;
14760;SDS011;7472;45.396;5.272;2023-02-25T13:06:50;13.85;;;9.32;;
14760;SDS011;7472;45.396;5.272;2023-02-25T13:09:28;16.23;;;10.10;;
14760;SDS011;7472;45.396;5.272;2023-02-25T13:12:07;11.77;;;9.07;;
14760;SDS011;7472;45.396;5.272;2023-02-25T13:14:46;11.60;;;8.43;;
14760;SDS011;7472;45.396;5.272;2023-02-25T13:17:28;11.82;;;8.43;;
14760;SDS011;7472;45.396;5.272;2023-02-25T13:20:19;11.65;;;8.93;;
14760;SDS011;7472;45.396;5.272;2023-02-25T13:28:49;10.32;;;6.72;;
14760;SDS011;7472;45.396;5.272;2023-02-25T13:31:23;10.82;;;7.97;;
14760;SDS011;7472;45.396;5.272;2023-02-25T13:34:00;14.90;;;9.63;;
14760;SDS011;7472;45.396;5.272;2023-02-25T13:36:36;13.65;;;9.88;;
14760;SDS011;7472;45.396;5.272;2023-02-25T13:39:18;14.43;;;9.88;;
14760;SDS011;7472;45.396;5.272;2023-02-25T13:41:57;15.48;;;9.77;;
14760;SDS011;7472;45.396;5.272;2023-02-25T13:44:34;17.83;;;10.52;;
14760;SDS011;7472;45.396;5.272;2023-02-25T13:49:56;14.18;;;8.80;;
14760;SDS011;7472;45.396;5.272;2023-02-25T13:52:37;13.85;;;10.35;;
14760;SDS011;7472;45.396;5.272;2023-02-25T13:55:22;13.65;;;9.38;;
14760;SDS011;7472;45.396;5.272;2023-02-25T13:57:56;14.75;;;9.98;;
14760;SDS011;7472;45.396;5.272;2023-02-25T14:00:36;12.65;;;9.43;;
14760;SDS011;7472;45.396;5.272;2023-02-25T14:03:17;15.82;;;11.13;;
14760;SDS011;7472;45.396;5.272;2023-02-25T14:05:58;14.90;;;10.05;;
14760;SDS011;7472;45.396;5.272;2023-02-25T14:08:40;10.35;;;6.53;;
14760;SDS011;7472;45.396;5.272;2023-02-25T14:11:14;14.15;;;9.27;;
14760;SDS011;7472;45.396;5.272;2023-02-25T14:14:03;13.52;;;9.70;;
14760;SDS011;7472;45.396;5.272;2023-02-25T14:16:39;15.07;;;10.07;;
14760;SDS011;7472;45.396;5.272;2023-02-25T14:19:16;17.38;;;7.47;;
14760;SDS011;7472;45.396;5.272;2023-02-25T14:24:39;15.32;;;10.73;;
14760;SDS011;7472;45.396;5.272;2023-02-25T14:27:15;13.63;;;8.48;;
14760;SDS011;7472;45.396;5.272;2023-02-25T14:29:54;13.50;;;9.68;;
14760;SDS011;7472;45.396;5.272;2023-02-25T14:32:35;17.05;;;10.35;;
14760;SDS011;7472;45.396;5.272;2023-02-25T14:35:08;13.50;;;10.35;;
14760;SDS011;7472;45.396;5.272;2023-02-25T14:37:44;16.73;;;10.32;;
14760;SDS011;7472;45.396;5.272;2023-02-25T14:40:23;12.48;;;8.93;;
14760;SDS011;7472;45.396;5.272;2023-02-25T14:42:56;9.07;;;6.93;;
14760;SDS011;7472;45.396;5.272;2023-02-25T14:45:29;15.55;;;9.65;;
14760;SDS011;7472;45.396;5.272;2023-02-25T14:48:04;18.60;;;10.77;;
14760;SDS011;7472;45.396;5.272;2023-02-25T14:50:32;14.65;;;9.90;;
14760;SDS011;7472;45.396;5.272;2023-02-25T14:53:18;12.25;;;8.57;;
14760;SDS011;7472;45.396;5.272;2023-02-25T14:55:58;18.55;;;10.18;;
14760;SDS011;7472;45.396;5.272;2023-02-25T15:01:27;13.20;;;6.72;;
14760;SDS011;7472;45.396;5.272;2023-02-25T15:04:14;16.48;;;8.57;;
14760;SDS011;7472;45.396;5.272;2023-02-25T15:06:55;18.63;;;11.90;;
14760;SDS011;7472;45.396;5.272;2023-02-25T15:12:23;12.13;;;8.23;;
14760;SDS011;7472;45.396;5.272;2023-02-25T15:14:59;12.52;;;8.48;;
14760;SDS011;7472;45.396;5.272;2023-02-25T15:17:54;13.20;;;8.35;;
14760;SDS011;7472;45.396;5.272;2023-02-25T15:20:33;15.23;;;10.55;;
14760;SDS011;7472;45.396;5.272;2023-02-25T15:23:04;16.33;;;9.50;;
14760;SDS011;7472;45.396;5.272;2023-02-25T15:25:40;15.90;;;10.90;;
14760;SDS011;7472;45.396;5.272;2023-02-25T15:34:01;11.32;;;7.88;;
14760;SDS011;7472;45.396;5.272;2023-02-25T15:36:43;11.80;;;8.90;;
14760;SDS011;7472;45.396;5.272;2023-02-25T15:39:45;14.10;;;9.90;;
14760;SDS011;7472;45.396;5.272;2023-02-25T15:42:15;10.30;;;6.00;;
14760;SDS011;7472;45.396;5.272;2023-02-25T15:44:50;12.98;;;10.25;;
14760;SDS011;7472;45.396;5.272;2023-02-25T15:47:27;11.45;;;7.40;;
14760;SDS011;7472;45.396;5.272;2023-02-25T15:49:55;13.32;;;8.15;;
14760;SDS011;7472;45.396;5.272;2023-02-25T15:55:16;15.20;;;9.13;;
14760;SDS011;7472;45.396;5.272;2023-02-25T15:57:47;39.28;;;29.23;;
14760;SDS011;7472;45.396;5.272;2023-02-25T16:03:23;40.90;;;34.22;;
14760;SDS011;7472;45.396;5.272;2023-02-25T16:05:51;8.73;;;7.10;;
14760;SDS011;7472;45.396;5.272;2023-02-25T16:08:21;13.05;;;9.57;;